createdAt,value
2018-08-10T00:01:45.792Z,21.78
2018-08-10T00:04:15.946Z,21.70
2018-08-10T00:06:45.771Z,21.64
2018-08-10T00:09:15.692Z,21.61
2018-08-10T00:11:45.446Z,21.56
2018-08-10T00:14:15.316Z,21.52
2018-08-10T00:16:45.116Z,21.46
2018-08-10T00:19:15.157Z,21.53
2018-08-10T00:21:45.252Z,21.46
2018-08-10T00:24:15.003Z,21.42
2018-08-10T00:26:46.410Z,21.42
2018-08-10T00:29:16.320Z,21.44
2018-08-10T00:31:46.069Z,21.46
2018-08-10T00:34:16.130Z,21.46
2018-08-10T00:36:46.146Z,21.50
2018-08-10T00:39:18.366Z,21.41
2018-08-10T00:41:48.195Z,21.37
2018-08-10T00:46:46.726Z,21.29
2018-08-10T00:49:16.590Z,21.29
2018-08-10T00:54:14.828Z,21.30
2018-08-10T00:56:44.701Z,21.35
2018-08-10T00:59:14.436Z,21.32
2018-08-10T01:01:44.638Z,21.33
2018-08-10T01:04:14.483Z,21.40
2018-08-10T01:06:44.299Z,21.32
2018-08-10T01:09:14.495Z,21.34
2018-08-10T01:11:44.213Z,21.34
2018-08-10T01:14:14.404Z,21.34
2018-08-10T01:16:47.633Z,21.33
2018-08-10T01:19:17.399Z,21.20
2018-08-10T01:21:47.283Z,21.24
2018-08-10T01:24:17.218Z,21.25
2018-08-10T01:26:46.977Z,21.13
2018-08-10T01:29:16.782Z,21.18
2018-08-10T01:31:46.568Z,21.11
2018-08-10T01:34:16.506Z,21.16
2018-08-10T01:36:46.267Z,21.19
2018-08-10T01:39:16.059Z,21.30
2018-08-10T01:41:45.877Z,21.25
2018-08-10T01:44:15.938Z,21.27
2018-08-10T01:46:45.887Z,21.30
2018-08-10T01:49:15.752Z,21.32
2018-08-10T01:51:45.691Z,21.31
2018-08-10T01:56:43.936Z,21.40
2018-08-10T01:59:13.797Z,21.51
2018-08-10T02:01:43.681Z,21.52
2018-08-10T02:04:13.755Z,21.56
2018-08-10T02:06:43.662Z,21.61
2018-08-10T02:09:13.416Z,21.63
2018-08-10T02:11:45.226Z,21.60
2018-08-10T02:14:15.420Z,21.60
2018-08-10T02:17:17.321Z,21.50
2018-08-10T02:19:47.115Z,21.47
2018-08-10T02:22:17.081Z,21.41
2018-08-10T02:24:46.836Z,21.51
2018-08-10T02:27:16.715Z,21.30
2018-08-10T02:29:46.849Z,21.30
2018-08-10T02:32:16.631Z,21.34
2018-08-10T02:34:49.549Z,21.28
2018-08-10T02:37:19.384Z,21.27
2018-08-10T02:39:53.579Z,21.20
2018-08-10T02:42:24.470Z,21.19
2018-08-10T02:44:55.009Z,21.18
2018-08-10T02:47:25.659Z,21.21
2018-08-10T02:49:56.593Z,21.17
2018-08-10T02:52:26.518Z,21.15
2018-08-10T02:54:56.262Z,21.14
2018-08-10T02:57:26.089Z,21.14
2018-08-10T02:59:55.887Z,21.11
2018-08-10T03:02:27.224Z,21.16
2018-08-10T03:05:01.435Z,21.19
2018-08-10T03:07:31.692Z,21.21
2018-08-10T03:10:10.584Z,21.25
2018-08-10T03:12:41.734Z,21.29
2018-08-10T03:15:18.244Z,21.34
2018-08-10T03:17:48.317Z,21.39
2018-08-10T03:20:19.729Z,21.43
2018-08-10T03:22:49.772Z,21.53
2018-08-10T03:25:19.603Z,21.63
2018-08-10T03:27:49.388Z,21.72
2018-08-10T03:30:19.740Z,21.73
2018-08-10T03:32:49.415Z,21.96
2018-08-10T03:35:19.314Z,22.46
2018-08-10T03:37:49.131Z,23.00
2018-08-10T03:40:19.100Z,23.49
2018-08-10T03:42:48.943Z,23.78
2018-08-10T03:45:18.697Z,24.05
2018-08-10T03:47:48.564Z,24.23
2018-08-10T03:50:18.477Z,24.44
2018-08-10T03:52:48.353Z,24.79
2018-08-10T03:55:18.716Z,25.16
2018-08-10T03:57:48.671Z,25.21
2018-08-10T04:00:18.559Z,25.63
2018-08-10T04:02:50.790Z,25.78
2018-08-10T04:05:21.184Z,26.09
2018-08-10T04:07:50.983Z,26.13
2018-08-10T04:10:23.002Z,26.25
2018-08-10T04:12:53.797Z,26.59
2018-08-10T04:15:23.582Z,26.67
2018-08-10T04:17:54.690Z,26.74
2018-08-10T04:20:26.720Z,27.25
2018-08-10T04:22:56.535Z,27.43
2018-08-10T04:25:26.339Z,27.65
2018-08-10T04:27:56.213Z,27.79
2018-08-10T04:33:18.689Z,28.34
2018-08-10T04:36:15.796Z,28.55
2018-08-10T04:38:47.008Z,28.48
2018-08-10T04:41:20.913Z,28.11
2018-08-10T04:43:51.973Z,28.40
2018-08-10T04:46:22.533Z,28.39
2018-08-10T04:48:52.518Z,28.51
2018-08-10T04:51:22.330Z,28.91
2018-08-10T04:53:52.113Z,28.35
2018-08-10T04:56:22.101Z,28.52
2018-08-10T04:58:52.083Z,28.89
2018-08-10T05:01:22.618Z,29.26
2018-08-10T05:03:52.668Z,28.65
2018-08-10T05:06:22.661Z,27.07
2018-08-10T05:08:52.656Z,28.05
2018-08-10T05:11:22.527Z,29.26
2018-08-10T05:13:52.431Z,29.94
2018-08-10T05:16:23.547Z,30.48
2018-08-10T05:18:53.860Z,30.06
2018-08-10T05:21:23.708Z,30.58
2018-08-10T05:23:53.476Z,30.00
2018-08-10T05:26:23.660Z,30.72
2018-08-10T05:28:53.390Z,31.41
2018-08-10T05:31:23.365Z,31.83
2018-08-10T05:33:53.730Z,32.15
2018-08-10T05:36:23.856Z,32.86
2018-08-10T05:38:56.296Z,33.18
2018-08-10T05:41:26.302Z,32.95
2018-08-10T05:43:59.367Z,32.00
2018-08-10T05:46:29.395Z,32.12
2018-08-10T05:48:59.116Z,32.65
2018-08-10T05:51:28.849Z,33.21
2018-08-10T05:53:58.638Z,33.24
2018-08-10T05:56:28.403Z,33.86
2018-08-10T05:58:58.129Z,32.84
2018-08-10T06:01:28.035Z,33.66
2018-08-10T06:03:58.285Z,33.15
2018-08-10T06:06:33.063Z,31.86
2018-08-10T06:09:04.575Z,32.77
2018-08-10T06:11:34.418Z,32.55
2018-08-10T06:14:04.159Z,32.49
2018-08-10T06:16:34.468Z,33.58
2018-08-10T06:19:04.308Z,33.94
2018-08-10T06:21:34.274Z,33.46
2018-08-10T06:24:04.707Z,33.13
2018-08-10T06:26:35.168Z,33.27
2018-08-10T06:29:05.717Z,34.08
2018-08-10T06:31:35.873Z,33.94
2018-08-10T06:34:06.347Z,33.60
2018-08-10T06:36:36.303Z,32.94
2018-08-10T06:39:12.469Z,33.36
2018-08-10T06:41:42.563Z,32.20
2018-08-10T06:44:12.419Z,33.26
2018-08-10T06:46:42.491Z,32.96
2018-08-10T06:49:13.284Z,33.40
2018-08-10T06:51:43.427Z,33.45
2018-08-10T06:54:13.328Z,32.14
2018-08-10T06:56:43.114Z,32.47
2018-08-10T06:59:13.469Z,32.33
2018-08-10T07:01:43.333Z,32.37
2018-08-10T07:04:13.957Z,33.20
2018-08-10T07:06:43.975Z,33.70
2018-08-10T07:09:14.765Z,33.72
2018-08-10T07:11:47.225Z,33.86
2018-08-10T07:14:22.197Z,33.11
2018-08-10T07:16:56.802Z,33.62
2018-08-10T07:19:27.735Z,35.58
2018-08-10T07:21:57.740Z,34.15
2018-08-10T07:24:27.681Z,33.85
2018-08-10T07:27:02.888Z,34.07
2018-08-10T07:29:33.241Z,34.24
2018-08-10T07:32:03.534Z,35.87
2018-08-10T07:34:33.470Z,34.51
2018-08-10T07:37:03.456Z,33.70
2018-08-10T07:39:33.400Z,33.67
2018-08-10T07:42:05.761Z,33.07
2018-08-10T07:44:36.722Z,33.08
2018-08-10T07:47:07.026Z,31.95
2018-08-10T07:49:38.025Z,31.31
2018-08-10T07:52:08.488Z,30.52
2018-08-10T07:54:40.925Z,29.95
2018-08-10T07:57:10.985Z,29.53
2018-08-10T07:59:40.983Z,29.49
2018-08-10T08:02:11.108Z,28.88
2018-08-10T08:04:41.068Z,28.68
2018-08-10T08:07:11.015Z,28.16
2018-08-10T08:09:40.970Z,27.94
2018-08-10T08:12:11.384Z,27.73
2018-08-10T08:14:41.143Z,27.98
2018-08-10T08:17:11.060Z,27.85
2018-08-10T08:19:40.965Z,27.87
2018-08-10T08:22:20.460Z,28.01
2018-08-10T08:24:50.394Z,28.04
2018-08-10T08:27:20.899Z,27.92
2018-08-10T08:29:51.003Z,28.06
2018-08-10T08:32:20.930Z,28.21
2018-08-10T08:34:51.040Z,28.58
2018-08-10T08:37:20.948Z,28.73
2018-08-10T08:41:04.981Z,28.61
2018-08-10T08:46:02.488Z,28.62
2018-08-10T08:48:35.307Z,28.37
2018-08-10T08:51:07.233Z,28.48
2018-08-10T08:53:43.224Z,28.53
2018-08-10T08:56:14.871Z,28.46
2018-08-10T08:58:45.879Z,28.49
2018-08-10T09:01:16.200Z,28.41
2018-08-10T09:05:03.161Z,28.59
2018-08-10T09:07:36.950Z,28.16
2018-08-10T09:10:14.828Z,28.06
2018-08-10T09:12:44.677Z,28.01
2018-08-10T09:15:16.235Z,28.08
2018-08-10T09:17:46.052Z,27.79
2018-08-10T09:20:15.837Z,27.82
2018-08-10T09:22:45.585Z,28.22
2018-08-10T09:25:17.369Z,28.27
2018-08-10T09:27:47.151Z,28.09
2018-08-10T09:30:18.583Z,28.27
2018-08-10T09:32:48.477Z,28.33
2018-08-10T09:35:18.221Z,28.36
2018-08-10T09:37:53.700Z,28.11
2018-08-10T09:40:23.416Z,28.36
2018-08-10T09:42:53.223Z,28.44
2018-08-10T09:45:23.233Z,28.30
2018-08-10T09:47:53.069Z,28.15
2018-08-10T09:50:23.176Z,28.44
2018-08-10T09:52:58.734Z,28.41
2018-08-10T09:55:34.140Z,28.35
2018-08-10T09:58:07.559Z,28.04
2018-08-10T10:00:42.612Z,27.83
2018-08-10T10:03:18.100Z,27.69
2018-08-10T10:05:48.985Z,27.74
2018-08-10T10:08:20.348Z,27.73
2018-08-10T10:10:51.267Z,27.62
2018-08-10T10:13:21.052Z,27.73
2018-08-10T10:15:50.853Z,27.99
2018-08-10T10:18:20.723Z,27.94
2018-08-10T10:20:50.651Z,27.92
2018-08-10T10:23:20.427Z,27.80
2018-08-10T10:25:50.286Z,27.98
2018-08-10T10:28:20.595Z,28.05
2018-08-10T10:30:50.337Z,28.11
2018-08-10T10:33:20.029Z,27.96
2018-08-10T10:35:49.738Z,27.75
2018-08-10T10:38:20.153Z,27.92
2018-08-10T10:40:49.900Z,27.88
2018-08-10T10:43:21.035Z,28.00
2018-08-10T10:45:50.690Z,28.08
2018-08-10T10:48:20.413Z,27.92
2018-08-10T10:50:50.189Z,27.97
2018-08-10T10:53:20.257Z,27.78
2018-08-10T10:55:49.900Z,27.97
2018-08-10T10:58:19.890Z,27.80
2018-08-10T11:00:50.208Z,27.91
2018-08-10T11:03:21.249Z,27.96
2018-08-10T11:05:50.966Z,28.09
2018-08-10T11:08:20.773Z,27.99
2018-08-10T11:10:51.179Z,27.79
2018-08-10T11:13:20.966Z,27.86
2018-08-10T11:15:50.843Z,27.72
2018-08-10T11:18:22.350Z,27.73
2018-08-10T11:20:52.126Z,27.78
2018-08-10T11:23:21.778Z,27.67
2018-08-10T11:25:53.069Z,27.57
2018-08-10T11:28:22.731Z,27.67
2018-08-10T11:30:52.499Z,27.71
2018-08-10T11:33:22.221Z,27.81
2018-08-10T11:35:52.120Z,27.66
2018-08-10T11:38:22.225Z,27.64
2018-08-10T11:40:52.213Z,27.59
2018-08-10T11:43:22.983Z,27.63
2018-08-10T11:45:52.694Z,27.78
2018-08-10T11:48:25.739Z,27.84
2018-08-10T11:50:55.532Z,27.90
2018-08-10T11:53:25.353Z,28.05
2018-08-10T11:55:55.213Z,27.77
2018-08-10T11:58:25.724Z,27.42
2018-08-10T12:00:55.816Z,27.38
2018-08-10T12:03:25.739Z,27.59
2018-08-10T12:05:56.580Z,27.62
2018-08-10T12:08:26.369Z,27.52
2018-08-10T12:10:56.716Z,27.56
2018-08-10T12:13:26.455Z,27.50
2018-08-10T12:15:57.358Z,27.49
2018-08-10T12:18:28.417Z,27.45
2018-08-10T12:20:58.220Z,27.53
2018-08-10T12:23:28.002Z,27.58
2018-08-10T12:25:57.850Z,27.40
2018-08-10T12:28:27.601Z,27.29
2018-08-10T12:30:57.541Z,27.20
2018-08-10T12:33:27.330Z,27.15
2018-08-10T12:35:57.071Z,27.18
2018-08-10T12:38:26.765Z,27.40
2018-08-10T12:40:56.361Z,27.41
2018-08-10T12:43:26.222Z,27.37
2018-08-10T12:45:55.953Z,27.36
2018-08-10T12:48:25.764Z,27.43
2018-08-10T12:50:55.672Z,27.46
2018-08-10T12:53:29.931Z,27.39
2018-08-10T12:55:59.964Z,27.32
2018-08-10T12:58:29.864Z,27.26
2018-08-10T13:00:59.706Z,27.20
2018-08-10T13:03:30.816Z,27.24
2018-08-10T13:06:01.730Z,27.30
2018-08-10T13:08:31.910Z,27.34
2018-08-10T13:11:01.797Z,27.10
2018-08-10T13:13:32.254Z,27.13
2018-08-10T13:16:02.385Z,27.29
2018-08-10T13:18:32.202Z,27.40
2018-08-10T13:21:17.473Z,27.17
2018-08-10T13:23:47.344Z,27.17
2018-08-10T13:26:17.056Z,26.96
2018-08-10T13:29:03.691Z,26.99
2018-08-10T13:31:33.610Z,27.16
2018-08-10T13:34:04.153Z,27.29
2018-08-10T13:37:24.276Z,27.03
2018-08-10T13:39:55.508Z,27.04
2018-08-10T13:42:25.622Z,27.05
2018-08-10T13:44:56.058Z,27.14
2018-08-10T13:47:25.779Z,27.14
2018-08-10T13:49:55.628Z,26.95
2018-08-10T13:52:26.058Z,26.86
2018-08-10T13:54:55.758Z,26.96
2018-08-10T13:57:25.397Z,26.89
2018-08-10T13:59:55.716Z,26.95
2018-08-10T14:02:26.742Z,26.80
2018-08-10T14:04:57.189Z,26.66
2018-08-10T14:07:27.828Z,26.91
2018-08-10T14:09:57.635Z,27.10
2018-08-10T14:12:27.671Z,27.13
2018-08-10T14:14:57.425Z,26.95
2018-08-10T14:17:28.060Z,26.66
2018-08-10T14:19:57.747Z,26.57
2018-08-10T14:22:27.593Z,26.70
2018-08-10T14:24:57.322Z,26.57
2018-08-10T14:27:27.050Z,26.59
2018-08-10T14:29:57.017Z,26.71
2018-08-10T14:32:26.864Z,26.71
2018-08-10T14:34:56.656Z,26.76
2018-08-10T14:37:26.704Z,26.60
2018-08-10T14:39:56.816Z,26.55
2018-08-10T14:42:26.905Z,26.50
2018-08-10T14:44:56.934Z,26.46
2018-08-10T14:47:27.603Z,26.61
2018-08-10T14:49:58.659Z,26.53
2018-08-10T14:52:30.696Z,26.54
2018-08-10T14:55:02.669Z,26.55
2018-08-10T14:57:35.759Z,26.55
2018-08-10T15:00:12.368Z,26.42
2018-08-10T15:02:42.051Z,26.40
2018-08-10T15:05:12.505Z,26.45
2018-08-10T15:07:42.729Z,26.35
2018-08-10T15:10:18.910Z,26.31
2018-08-10T15:12:48.805Z,26.27
2018-08-10T15:15:20.498Z,26.16
2018-08-10T15:17:51.724Z,26.27
2018-08-10T15:20:22.168Z,26.26
2018-08-10T15:22:52.173Z,26.28
2018-08-10T15:25:21.996Z,26.23
2018-08-10T15:27:52.346Z,26.12
2018-08-10T15:30:22.081Z,26.11
2018-08-10T15:32:52.009Z,26.10
2018-08-10T15:35:22.001Z,26.07
2018-08-10T15:37:52.465Z,26.09
2018-08-10T15:40:22.438Z,26.11
2018-08-10T15:42:54.939Z,26.08
2018-08-10T15:45:25.579Z,25.85
2018-08-10T15:47:58.615Z,25.87
2018-08-10T15:50:29.177Z,25.89
2018-08-10T15:52:58.885Z,25.77
2018-08-10T15:55:28.600Z,25.78
2018-08-10T15:58:00.660Z,25.77
2018-08-10T16:00:42.351Z,25.72
2018-08-10T16:03:12.295Z,25.65
2018-08-10T16:05:42.042Z,25.57
2018-08-10T16:08:15.710Z,25.51
2018-08-10T16:10:45.450Z,25.58
2018-08-10T16:13:15.206Z,25.57
2018-08-10T16:15:44.892Z,25.53
2018-08-10T16:18:14.735Z,25.51
2018-08-10T16:20:46.088Z,25.55
2018-08-10T16:23:16.834Z,25.51
2018-08-10T16:25:46.535Z,25.60
2018-08-10T16:28:16.567Z,25.58
2018-08-10T16:30:46.277Z,25.58
2018-08-10T16:33:17.296Z,25.47
2018-08-10T16:35:46.995Z,25.43
2018-08-10T16:38:17.776Z,25.37
2018-08-10T16:40:50.010Z,25.30
2018-08-10T16:43:22.955Z,25.26
2018-08-10T16:45:54.281Z,25.16
2018-08-10T16:48:24.128Z,25.12
2018-08-10T16:50:53.749Z,24.98
2018-08-10T16:53:23.599Z,24.98
2018-08-10T16:55:54.131Z,24.92
2018-08-10T16:58:24.520Z,24.87
2018-08-10T17:00:54.704Z,24.80
2018-08-10T17:03:24.973Z,22.84
2018-08-10T17:05:54.669Z,24.76
2018-08-10T17:08:24.540Z,24.81
2018-08-10T17:10:54.935Z,24.69
2018-08-10T17:13:26.874Z,24.68
2018-08-10T17:15:56.735Z,24.61
2018-08-10T17:18:27.074Z,24.67
2018-08-10T17:20:56.808Z,24.59
2018-08-10T17:23:28.269Z,24.64
2018-08-10T17:25:58.112Z,24.51
2018-08-10T17:28:27.748Z,24.43
2018-08-10T17:30:57.557Z,24.46
2018-08-10T17:33:27.371Z,24.42
2018-08-10T17:35:57.076Z,24.34
2018-08-10T17:38:26.841Z,24.26
2018-08-10T17:40:56.685Z,24.12
2018-08-10T17:43:26.497Z,24.12
2018-08-10T17:45:56.301Z,24.05
2018-08-10T17:48:26.099Z,24.00
2018-08-10T17:50:56.100Z,23.95
2018-08-10T17:53:25.893Z,23.94
2018-08-10T17:55:57.426Z,23.92
2018-08-10T17:58:27.102Z,23.93
2018-08-10T18:00:56.809Z,23.95
2018-08-10T18:03:43.752Z,23.88
2018-08-10T18:06:14.508Z,23.86
2018-08-10T18:08:44.430Z,23.69
2018-08-10T18:11:14.064Z,23.75
2018-08-10T18:13:43.910Z,23.69
2018-08-10T18:16:13.876Z,23.66
2018-08-10T18:18:43.923Z,23.65
2018-08-10T18:21:15.085Z,23.66
2018-08-10T18:23:44.960Z,23.59
2018-08-10T18:26:16.452Z,23.53
2018-08-10T18:28:49.285Z,23.54
2018-08-10T18:31:23.098Z,23.46
2018-08-10T18:33:53.818Z,23.44
2018-08-10T18:36:24.823Z,23.46
2018-08-10T18:38:55.248Z,23.36
2018-08-10T18:41:25.172Z,23.27
2018-08-10T18:44:16.333Z,23.17
2018-08-10T18:46:46.310Z,23.11
2018-08-10T18:49:16.090Z,23.03
2018-08-10T18:51:46.419Z,23.09
2018-08-10T18:54:16.905Z,23.06
2018-08-10T18:56:47.122Z,23.05
2018-08-10T18:59:17.123Z,23.04
2018-08-10T19:01:48.172Z,22.93
2018-08-10T19:04:25.717Z,22.92
2018-08-10T19:07:06.929Z,22.83
2018-08-10T19:10:03.909Z,22.83
2018-08-10T19:12:43.918Z,22.86
2018-08-10T19:15:25.886Z,22.73
2018-08-10T19:17:57.724Z,22.70
2018-08-10T19:20:27.462Z,22.66
2018-08-10T19:22:57.442Z,22.66
2018-08-10T19:25:28.231Z,22.64
2018-08-10T19:27:58.437Z,22.71
2018-08-10T19:30:28.173Z,22.63
2018-08-10T19:32:58.449Z,22.58
2018-08-10T19:35:30.380Z,22.59
2018-08-10T19:38:00.229Z,22.51
2018-08-10T19:40:30.492Z,22.52
2018-08-10T19:43:01.716Z,22.45
2018-08-10T19:45:35.260Z,22.43
2018-08-10T19:48:07.580Z,22.43
2018-08-10T19:53:44.919Z,22.43
2018-08-10T19:56:16.097Z,22.31
2018-08-10T19:58:48.530Z,22.36
2018-08-10T20:01:19.108Z,22.30
2018-08-10T20:03:50.404Z,22.07
2018-08-10T20:06:20.079Z,21.95
2018-08-10T20:08:52.739Z,21.85
2018-08-10T20:11:22.903Z,21.68
2018-08-10T20:13:55.003Z,21.57
2018-08-10T20:16:24.810Z,21.62
2018-08-10T20:18:55.950Z,21.56
2018-08-10T20:21:25.989Z,21.52
2018-08-10T20:23:59.795Z,21.44
2018-08-10T20:26:29.654Z,21.43
2018-08-10T20:29:03.136Z,21.39
2018-08-10T20:31:33.885Z,21.38
2018-08-10T20:34:03.977Z,21.37
2018-08-10T20:36:34.287Z,21.32
2018-08-10T20:39:04.739Z,21.35
2018-08-10T20:41:34.843Z,21.26
2018-08-10T20:44:06.063Z,21.30
2018-08-10T20:46:37.046Z,21.33
2018-08-10T20:49:10.283Z,21.30
2018-08-10T20:51:39.988Z,21.28
2018-08-10T20:54:09.922Z,21.19
2018-08-10T20:56:39.688Z,21.23
2018-08-10T20:59:09.466Z,21.23
2018-08-10T21:01:39.237Z,21.29
2018-08-10T21:04:09.129Z,21.27
2018-08-10T21:06:40.877Z,21.21
2018-08-10T21:09:14.182Z,21.25
2018-08-10T21:11:45.323Z,21.19
2018-08-10T21:14:15.752Z,21.23
2018-08-10T21:16:45.666Z,21.27
2018-08-10T21:19:15.651Z,21.26
2018-08-10T21:21:45.433Z,21.21
2018-08-10T21:24:15.261Z,20.98
2018-08-10T21:26:45.085Z,21.34
2018-08-10T21:29:14.869Z,21.30
2018-08-10T21:31:45.660Z,21.30
2018-08-10T21:34:15.581Z,21.28
2018-08-10T21:36:45.477Z,21.31
2018-08-10T21:39:15.215Z,21.38
2018-08-10T21:41:44.985Z,21.40
2018-08-10T21:44:14.724Z,21.38
2018-08-10T21:46:44.661Z,21.28
2018-08-10T21:49:14.414Z,21.07
2018-08-10T21:51:45.939Z,21.37
2018-08-10T21:54:33.738Z,21.33
2018-08-10T21:57:04.485Z,21.30
2018-08-10T21:59:34.505Z,21.31
2018-08-10T22:02:04.730Z,21.28
2018-08-10T22:04:34.490Z,21.28
2018-08-10T22:07:04.688Z,21.29
2018-08-10T22:09:36.724Z,21.32
2018-08-10T22:12:13.913Z,21.29
2018-08-10T22:14:50.028Z,21.39
2018-08-10T22:17:24.933Z,21.43
2018-08-10T22:20:14.870Z,21.43
2018-08-10T22:22:45.597Z,21.47
2018-08-10T22:25:16.323Z,21.43
2018-08-10T22:27:46.147Z,21.41
2018-08-10T22:30:16.634Z,21.41
2018-08-10T22:32:46.672Z,21.38
2018-08-10T22:35:16.727Z,21.44
2018-08-10T22:37:46.732Z,21.47
2018-08-10T22:40:16.580Z,21.45
2018-08-10T22:42:46.541Z,21.44
2018-08-10T22:45:16.347Z,21.48
2018-08-10T22:47:46.423Z,21.48
2018-08-10T22:50:16.260Z,21.51
2018-08-10T22:52:46.032Z,21.44
2018-08-10T22:55:16.206Z,21.52
2018-08-10T22:57:46.210Z,21.45
2018-08-10T23:00:15.977Z,21.46
2018-08-10T23:02:45.700Z,21.39
2018-08-10T23:05:15.747Z,21.44
2018-08-10T23:07:45.695Z,21.45
2018-08-10T23:10:16.692Z,21.45
2018-08-10T23:12:46.562Z,21.50
2018-08-10T23:15:16.495Z,21.53
2018-08-10T23:17:46.486Z,21.48
2018-08-10T23:20:17.553Z,21.48
2018-08-10T23:22:48.734Z,21.53
2018-08-10T23:25:18.565Z,21.51
2018-08-10T23:27:51.170Z,21.52
2018-08-10T23:30:21.178Z,21.48
2018-08-10T23:32:50.916Z,21.48
2018-08-10T23:35:21.689Z,21.48
2018-08-10T23:37:51.558Z,21.45
2018-08-10T23:40:21.378Z,21.49
2018-08-10T23:42:51.220Z,21.51
2018-08-10T23:45:21.090Z,21.46
2018-08-10T23:47:51.913Z,21.54
2018-08-10T23:50:23.075Z,21.51
2018-08-10T23:52:52.939Z,21.60
2018-08-10T23:55:22.747Z,21.73
2018-08-10T23:57:52.542Z,21.77
